sensor_id;sensor_type;location;lat;lon;timestamp;pressure;altitude;pressure_sealevel;temperature;humidity
54122;BME280;40029;58.708;50.190;2023-02-22T00:01:44;98169.25;;;-9.71;37.73
54122;BME280;40029;58.708;50.190;2023-02-22T00:04:40;98151.31;;;-9.88;37.83
54122;BME280;40029;58.708;50.190;2023-02-22T00:07:11;98147.88;;;-9.93;38.33
54122;BME280;40029;58.708;50.190;2023-02-22T00:09:44;98151.09;;;-10.02;38.08
54122;BME280;40029;58.708;50.190;2023-02-22T00:12:15;98097.75;;;-10.28;38.15
54122;BME280;40029;58.708;50.190;2023-02-22T00:14:46;98111.16;;;-10.30;37.91
54122;BME280;40029;58.708;50.190;2023-02-22T00:17:17;98153.53;;;-10.07;38.30
54122;BME280;40029;58.708;50.190;2023-02-22T00:19:50;98167.00;;;-10.03;38.07
54122;BME280;40029;58.708;50.190;2023-02-22T00:22:21;98128.91;;;-10.23;37.79
54122;BME280;40029;58.708;50.190;2023-02-22T00:24:52;98121.06;;;-10.40;38.09
54122;BME280;40029;58.708;50.190;2023-02-22T00:27:25;98143.09;;;-10.28;37.85
54122;BME280;40029;58.708;50.190;2023-02-22T00:29:56;98116.56;;;-10.56;37.47
54122;BME280;40029;58.708;50.190;2023-02-22T00:32:27;98130.00;;;-10.55;37.57
54122;BME280;40029;58.708;50.190;2023-02-22T00:35:19;98156.09;;;-10.50;37.36
54122;BME280;40029;58.708;50.190;2023-02-22T00:37:53;98130.25;;;-10.86;37.38
54122;BME280;40029;58.708;50.190;2023-02-22T00:40:32;98159.03;;;-10.71;36.87
54122;BME280;40029;58.708;50.190;2023-02-22T00:43:21;98161.38;;;-10.80;36.89
54122;BME280;40029;58.708;50.190;2023-02-22T00:45:53;98106.91;;;-11.21;37.37
54122;BME280;40029;58.708;50.190;2023-02-22T00:48:24;98100.06;;;-11.26;37.21
54122;BME280;40029;58.708;50.190;2023-02-22T00:50:56;98145.75;;;-11.06;37.18
54122;BME280;40029;58.708;50.190;2023-02-22T00:53:27;98098.09;;;-11.40;36.70
54122;BME280;40029;58.708;50.190;2023-02-22T00:55:58;98100.44;;;-11.47;36.74
54122;BME280;40029;58.708;50.190;2023-02-22T00:58:31;98141.13;;;-11.26;36.56
54122;BME280;40029;58.708;50.190;2023-02-22T01:01:02;98117.06;;;-11.54;36.69
54122;BME280;40029;58.708;50.190;2023-02-22T01:03:52;98109.88;;;-11.75;36.58
54122;BME280;40029;58.708;50.190;2023-02-22T01:06:23;98124.78;;;-11.84;36.33
54122;BME280;40029;58.708;50.190;2023-02-22T01:08:55;98166.06;;;-11.71;36.39
54122;BME280;40029;58.708;50.190;2023-02-22T01:11:44;98139.50;;;-11.98;36.55
54122;BME280;40029;58.708;50.190;2023-02-22T01:14:15;98159.09;;;-11.81;36.59
54122;BME280;40029;58.708;50.190;2023-02-22T01:16:48;98157.44;;;-11.82;36.77
54122;BME280;40029;58.708;50.190;2023-02-22T01:19:21;98112.38;;;-12.11;36.88
54122;BME280;40029;58.708;50.190;2023-02-22T01:21:52;98137.91;;;-11.94;36.25
54122;BME280;40029;58.708;50.190;2023-02-22T01:24:24;98161.53;;;-11.86;36.25
54122;BME280;40029;58.708;50.190;2023-02-22T01:26:57;98118.13;;;-12.17;36.31
54122;BME280;40029;58.708;50.190;2023-02-22T01:29:28;98104.81;;;-12.14;36.74
54122;BME280;40029;58.708;50.190;2023-02-22T01:31:59;98103.19;;;-12.11;37.12
54122;BME280;40029;58.708;50.190;2023-02-22T01:34:32;98093.94;;;-12.13;36.96
54122;BME280;40029;58.708;50.190;2023-02-22T01:37:03;98116.09;;;-11.97;37.08
54122;BME280;40029;58.708;50.190;2023-02-22T01:39:36;98148.38;;;-11.76;36.99
54122;BME280;40029;58.708;50.190;2023-02-22T01:42:26;98095.13;;;-11.99;36.93
54122;BME280;40029;58.708;50.190;2023-02-22T01:48:10;98176.66;;;-11.48;37.85
54122;BME280;40029;58.708;50.190;2023-02-22T01:51:10;98161.72;;;-11.42;37.22
54122;BME280;40029;58.708;50.190;2023-02-22T01:56:18;98168.88;;;-11.59;36.77
54122;BME280;40029;58.708;50.190;2023-02-22T01:59:10;98106.56;;;-12.10;36.26
54122;BME280;40029;58.708;50.190;2023-02-22T02:01:43;98151.81;;;-12.07;36.14
54122;BME280;40029;58.708;50.190;2023-02-22T02:04:34;98150.75;;;-12.17;36.74
54122;BME280;40029;58.708;50.190;2023-02-22T02:07:07;98156.59;;;-12.16;36.28
54122;BME280;40029;58.708;50.190;2023-02-22T02:09:54;98170.91;;;-12.14;36.41
54122;BME280;40029;58.708;50.190;2023-02-22T02:12:30;98159.91;;;-12.19;36.66
54122;BME280;40029;58.708;50.190;2023-02-22T02:17:59;98151.50;;;-12.19;36.63
54122;BME280;40029;58.708;50.190;2023-02-22T02:20:53;98168.34;;;-12.15;36.41
54122;BME280;40029;58.708;50.190;2023-02-22T02:23:51;98138.69;;;-12.30;36.46
54122;BME280;40029;58.708;50.190;2023-02-22T02:38:54;98189.59;;;-12.02;35.48
54122;BME280;40029;58.708;50.190;2023-02-22T02:41:34;98145.31;;;-12.32;35.28
54122;BME280;40029;58.708;50.190;2023-02-22T02:44:45;98201.47;;;-12.28;35.14
54122;BME280;40029;58.708;50.190;2023-02-22T02:47:22;98146.16;;;-12.65;35.68
54122;BME280;40029;58.708;50.190;2023-02-22T02:50:02;98190.94;;;-12.47;35.25
54122;BME280;40029;58.708;50.190;2023-02-22T02:52:34;98189.66;;;-12.63;35.10
54122;BME280;40029;58.708;50.190;2023-02-22T02:55:08;98167.06;;;-12.94;34.69
54122;BME280;40029;58.708;50.190;2023-02-22T02:57:59;98159.78;;;-13.14;34.86
54122;BME280;40029;58.708;50.190;2023-02-22T03:00:36;98198.44;;;-13.07;34.92
54122;BME280;40029;58.708;50.190;2023-02-22T03:06:19;98202.31;;;-13.17;34.85
54122;BME280;40029;58.708;50.190;2023-02-22T03:12:18;98215.97;;;-13.07;34.93
54122;BME280;40029;58.708;50.190;2023-02-22T03:20:42;98160.91;;;-13.61;34.42
54122;BME280;40029;58.708;50.190;2023-02-22T03:23:37;98222.78;;;-13.31;34.45
54122;BME280;40029;58.708;50.190;2023-02-22T03:26:15;98166.38;;;-13.73;35.07
54122;BME280;40029;58.708;50.190;2023-02-22T03:28:51;98224.72;;;-13.50;34.71
54122;BME280;40029;58.708;50.190;2023-02-22T03:31:27;98182.16;;;-13.75;34.50
54122;BME280;40029;58.708;50.190;2023-02-22T03:34:07;98219.31;;;-13.62;34.69
54122;BME280;40029;58.708;50.190;2023-02-22T03:36:47;98183.63;;;-13.82;35.18
54122;BME280;40029;58.708;50.190;2023-02-22T03:39:20;98168.16;;;-13.96;34.44
54122;BME280;40029;58.708;50.190;2023-02-22T03:42:08;98220.13;;;-13.63;34.14
54122;BME280;40029;58.708;50.190;2023-02-22T03:44:43;98218.81;;;-13.77;34.11
54122;BME280;40029;58.708;50.190;2023-02-22T03:47:24;98228.72;;;-13.80;33.46
54122;BME280;40029;58.708;50.190;2023-02-22T03:50:11;98229.09;;;-13.94;33.85
54122;BME280;40029;58.708;50.190;2023-02-22T03:52:46;98233.13;;;-13.99;34.25
54122;BME280;40029;58.708;50.190;2023-02-22T03:55:24;98250.75;;;-13.96;34.03
54122;BME280;40029;58.708;50.190;2023-02-22T03:58:01;98254.09;;;-13.95;33.86
54122;BME280;40029;58.708;50.190;2023-02-22T04:00:36;98183.44;;;-14.38;34.22
54122;BME280;40029;58.708;50.190;2023-02-22T04:03:07;98205.38;;;-14.30;33.61
54122;BME280;40029;58.708;50.190;2023-02-22T04:05:38;98241.75;;;-14.15;33.88
54122;BME280;40029;58.708;50.190;2023-02-22T04:08:10;98242.19;;;-14.26;33.78
54122;BME280;40029;58.708;50.190;2023-02-22T04:10:41;98263.06;;;-14.26;33.60
54122;BME280;40029;58.708;50.190;2023-02-22T04:13:13;98264.28;;;-14.39;33.42
54122;BME280;40029;58.708;50.190;2023-02-22T04:15:48;98206.91;;;-14.82;33.33
54122;BME280;40029;58.708;50.190;2023-02-22T04:18:20;98248.56;;;-14.58;33.70
54122;BME280;40029;58.708;50.190;2023-02-22T04:20:52;98260.91;;;-14.63;33.88
54122;BME280;40029;58.708;50.190;2023-02-22T04:23:34;98236.84;;;-14.83;33.99
54122;BME280;40029;58.708;50.190;2023-02-22T04:26:06;98210.41;;;-14.99;33.58
54122;BME280;40029;58.708;50.190;2023-02-22T04:28:37;98209.69;;;-15.19;33.54
54122;BME280;40029;58.708;50.190;2023-02-22T04:31:26;98209.75;;;-15.18;33.73
54122;BME280;40029;58.708;50.190;2023-02-22T04:34:00;98257.63;;;-14.84;33.95
54122;BME280;40029;58.708;50.190;2023-02-22T04:36:36;98256.22;;;-14.78;33.48
54122;BME280;40029;58.708;50.190;2023-02-22T04:39:07;98160.94;;;-15.32;33.57
54122;BME280;40029;58.708;50.190;2023-02-22T04:41:39;98262.41;;;-14.68;33.67
54122;BME280;40029;58.708;50.190;2023-02-22T04:44:11;98262.56;;;-14.64;33.60
54122;BME280;40029;58.708;50.190;2023-02-22T04:47:00;98208.03;;;-14.96;33.79
54122;BME280;40029;58.708;50.190;2023-02-22T04:49:32;98200.25;;;-15.04;34.00
54122;BME280;40029;58.708;50.190;2023-02-22T04:52:03;98212.44;;;-14.91;34.22
54122;BME280;40029;58.708;50.190;2023-02-22T04:54:38;98218.38;;;-14.87;33.71
54122;BME280;40029;58.708;50.190;2023-02-22T04:57:10;98284.72;;;-14.50;33.64
54122;BME280;40029;58.708;50.190;2023-02-22T04:59:41;98258.47;;;-14.62;33.72
54122;BME280;40029;58.708;50.190;2023-02-22T05:02:15;98271.53;;;-14.45;33.73
54122;BME280;40029;58.708;50.190;2023-02-22T05:04:46;98260.16;;;-14.37;33.62
54122;BME280;40029;58.708;50.190;2023-02-22T05:07:18;98278.16;;;-14.23;34.03
54122;BME280;40029;58.708;50.190;2023-02-22T05:09:49;98282.59;;;-14.16;34.01
54122;BME280;40029;58.708;50.190;2023-02-22T05:12:20;98233.78;;;-14.28;33.92
54122;BME280;40029;58.708;50.190;2023-02-22T05:15:16;98279.25;;;-13.92;33.69
54122;BME280;40029;58.708;50.190;2023-02-22T05:17:47;98243.81;;;-14.03;33.94
54122;BME280;40029;58.708;50.190;2023-02-22T05:20:27;98281.41;;;-13.77;33.92
54122;BME280;40029;58.708;50.190;2023-02-22T05:23:00;98265.56;;;-13.76;33.68
54122;BME280;40029;58.708;50.190;2023-02-22T05:25:50;98221.72;;;-13.91;33.44
54122;BME280;40029;58.708;50.190;2023-02-22T05:28:21;98274.13;;;-13.46;33.94
54122;BME280;40029;58.708;50.190;2023-02-22T05:30:53;98225.16;;;-13.62;33.76
54122;BME280;40029;58.708;50.190;2023-02-22T05:33:24;98234.06;;;-13.44;33.84
54122;BME280;40029;58.708;50.190;2023-02-22T05:35:55;98226.84;;;-13.35;34.34
54122;BME280;40029;58.708;50.190;2023-02-22T05:38:26;98213.56;;;-13.32;34.03
54122;BME280;40029;58.708;50.190;2023-02-22T05:40:57;98230.81;;;-13.13;34.18
54122;BME280;40029;58.708;50.190;2023-02-22T05:43:28;98267.03;;;-12.76;34.47
54122;BME280;40029;58.708;50.190;2023-02-22T05:46:00;98213.03;;;-12.94;34.15
54122;BME280;40029;58.708;50.190;2023-02-22T05:48:31;98221.06;;;-12.75;34.09
54122;BME280;40029;58.708;50.190;2023-02-22T05:51:02;98274.13;;;-12.33;34.66
54122;BME280;40029;58.708;50.190;2023-02-22T05:53:34;98268.56;;;-12.23;34.74
54122;BME280;40029;58.708;50.190;2023-02-22T05:56:05;98267.38;;;-12.05;34.56
54122;BME280;40029;58.708;50.190;2023-02-22T05:58:36;98235.94;;;-12.23;35.03
54122;BME280;40029;58.708;50.190;2023-02-22T06:01:07;98277.03;;;-11.88;35.46
54122;BME280;40029;58.708;50.190;2023-02-22T06:03:38;98255.25;;;-11.89;34.92
54122;BME280;40029;58.708;50.190;2023-02-22T06:06:10;98266.59;;;-11.70;34.68
54122;BME280;40029;58.708;50.190;2023-02-22T06:08:41;98272.53;;;-11.66;34.62
54122;BME280;40029;58.708;50.190;2023-02-22T06:11:12;98294.38;;;-11.64;35.42
54122;BME280;40029;58.708;50.190;2023-02-22T06:13:50;98275.94;;;-11.64;36.00
54122;BME280;40029;58.708;50.190;2023-02-22T06:16:22;98274.34;;;-11.61;36.05
54122;BME280;40029;58.708;50.190;2023-02-22T06:18:53;98281.22;;;-11.53;36.42
54122;BME280;40029;58.708;50.190;2023-02-22T06:21:24;98274.31;;;-11.62;36.09
54122;BME280;40029;58.708;50.190;2023-02-22T06:23:56;98277.03;;;-11.54;36.40
54122;BME280;40029;58.708;50.190;2023-02-22T06:26:28;98257.66;;;-11.59;36.24
54122;BME280;40029;58.708;50.190;2023-02-22T06:28:59;98261.91;;;-11.56;36.43
54122;BME280;40029;58.708;50.190;2023-02-22T06:31:48;98257.16;;;-11.45;36.70
54122;BME280;40029;58.708;50.190;2023-02-22T06:34:20;98282.78;;;-11.25;37.03
54122;BME280;40029;58.708;50.190;2023-02-22T06:36:54;98248.13;;;-11.37;36.88
54122;BME280;40029;58.708;50.190;2023-02-22T06:39:43;98308.69;;;-10.92;36.65
54122;BME280;40029;58.708;50.190;2023-02-22T06:42:15;98300.34;;;-10.91;36.98
54122;BME280;40029;58.708;50.190;2023-02-22T06:44:46;98308.97;;;-10.79;36.66
54122;BME280;40029;58.708;50.190;2023-02-22T06:47:17;98272.47;;;-11.00;36.85
54122;BME280;40029;58.708;50.190;2023-02-22T06:49:55;98276.22;;;-10.82;36.89
54122;BME280;40029;58.708;50.190;2023-02-22T06:52:27;98261.94;;;-10.84;36.58
54122;BME280;40029;58.708;50.190;2023-02-22T06:54:58;98277.34;;;-10.70;36.94
54122;BME280;40029;58.708;50.190;2023-02-22T06:57:29;98308.97;;;-10.43;37.39
54122;BME280;40029;58.708;50.190;2023-02-22T07:00:00;98306.84;;;-10.23;36.70
54122;BME280;40029;58.708;50.190;2023-02-22T07:02:34;98286.41;;;-10.39;37.07
54122;BME280;40029;58.708;50.190;2023-02-22T07:05:06;98303.56;;;-10.19;37.58
54122;BME280;40029;58.708;50.190;2023-02-22T07:07:38;98254.41;;;-10.44;37.47
54122;BME280;40029;58.708;50.190;2023-02-22T07:10:16;98253.66;;;-10.39;38.08
54122;BME280;40029;58.708;50.190;2023-02-22T07:12:49;98270.00;;;-10.17;37.92
54122;BME280;40029;58.708;50.190;2023-02-22T07:15:23;98304.19;;;-9.86;37.87
54122;BME280;40029;58.708;50.190;2023-02-22T07:17:55;98301.06;;;-9.75;37.32
54122;BME280;40029;58.708;50.190;2023-02-22T07:20:28;98293.34;;;-9.83;37.75
54122;BME280;40029;58.708;50.190;2023-02-22T07:23:00;98298.75;;;-9.63;37.34
54122;BME280;40029;58.708;50.190;2023-02-22T07:25:31;98308.41;;;-9.41;37.03
54122;BME280;40029;58.708;50.190;2023-02-22T07:28:02;98218.34;;;-9.98;37.31
54122;BME280;40029;58.708;50.190;2023-02-22T07:30:33;98253.41;;;-9.62;36.96
54122;BME280;40029;58.708;50.190;2023-02-22T07:33:07;98293.63;;;-9.19;36.54
54122;BME280;40029;58.708;50.190;2023-02-22T07:35:43;98292.66;;;-9.27;37.22
54122;BME280;40029;58.708;50.190;2023-02-22T07:38:17;98302.25;;;-9.05;37.34
54122;BME280;40029;58.708;50.190;2023-02-22T07:40:49;98283.69;;;-9.10;36.85
54122;BME280;40029;58.708;50.190;2023-02-22T07:43:25;98314.28;;;-8.89;37.05
54122;BME280;40029;58.708;50.190;2023-02-22T07:45:59;98255.72;;;-9.24;37.44
54122;BME280;40029;58.708;50.190;2023-02-22T07:48:32;98308.53;;;-8.80;37.21
54122;BME280;40029;58.708;50.190;2023-02-22T07:51:04;98223.78;;;-9.23;36.92
54122;BME280;40029;58.708;50.190;2023-02-22T07:53:35;98287.78;;;-8.62;37.18
54122;BME280;40029;58.708;50.190;2023-02-22T07:56:06;98318.34;;;-8.44;36.54
54122;BME280;40029;58.708;50.190;2023-02-22T07:58:56;98312.50;;;-8.38;36.91
54122;BME280;40029;58.708;50.190;2023-02-22T08:01:28;98293.97;;;-8.40;36.96
54122;BME280;40029;58.708;50.190;2023-02-22T08:04:17;98302.47;;;-8.32;37.08
54122;BME280;40029;58.708;50.190;2023-02-22T08:06:48;98322.03;;;-8.17;36.93
54122;BME280;40029;58.708;50.190;2023-02-22T08:09:20;98273.72;;;-8.45;37.35
54122;BME280;40029;58.708;50.190;2023-02-22T08:11:51;98328.94;;;-8.04;37.04
54122;BME280;40029;58.708;50.190;2023-02-22T08:14:22;98257.00;;;-8.32;37.22
54122;BME280;40029;58.708;50.190;2023-02-22T08:16:53;98318.81;;;-8.04;36.91
54122;BME280;40029;58.708;50.190;2023-02-22T08:19:43;98257.06;;;-8.27;36.94
54122;BME280;40029;58.708;50.190;2023-02-22T08:22:14;98263.22;;;-8.06;36.99
54122;BME280;40029;58.708;50.190;2023-02-22T08:25:03;98224.13;;;-8.35;36.93
54122;BME280;40029;58.708;50.190;2023-02-22T08:27:34;98287.09;;;-7.81;36.63
54122;BME280;40029;58.708;50.190;2023-02-22T08:30:06;98331.84;;;-7.72;37.24
54122;BME280;40029;58.708;50.190;2023-02-22T08:32:37;98336.16;;;-7.63;37.22
54122;BME280;40029;58.708;50.190;2023-02-22T08:35:09;98310.09;;;-7.58;36.97
54122;BME280;40029;58.708;50.190;2023-02-22T08:37:48;98281.28;;;-7.70;37.05
54122;BME280;40029;58.708;50.190;2023-02-22T08:40:22;98324.69;;;-7.34;36.94
54122;BME280;40029;58.708;50.190;2023-02-22T08:42:53;98320.47;;;-7.32;36.55
54122;BME280;40029;58.708;50.190;2023-02-22T08:45:25;98283.19;;;-7.48;36.44
54122;BME280;40029;58.708;50.190;2023-02-22T08:47:57;98228.16;;;-7.75;36.59
54122;BME280;40029;58.708;50.190;2023-02-22T08:50:31;98316.41;;;-7.14;36.54
54122;BME280;40029;58.708;50.190;2023-02-22T08:53:05;98315.59;;;-7.12;36.70
54122;BME280;40029;58.708;50.190;2023-02-22T08:55:37;98274.94;;;-7.30;36.89
54122;BME280;40029;58.708;50.190;2023-02-22T08:58:09;98324.94;;;-7.03;36.96
54122;BME280;40029;58.708;50.190;2023-02-22T09:00:40;98319.97;;;-6.94;36.68
54122;BME280;40029;58.708;50.190;2023-02-22T09:03:13;98324.31;;;-6.79;36.63
54122;BME280;40029;58.708;50.190;2023-02-22T09:05:45;98310.75;;;-6.84;36.81
54122;BME280;40029;58.708;50.190;2023-02-22T09:08:16;98271.03;;;-6.90;36.64
54122;BME280;40029;58.708;50.190;2023-02-22T09:10:49;98294.00;;;-6.64;36.75
54122;BME280;40029;58.708;50.190;2023-02-22T09:13:20;98289.06;;;-6.48;36.38
54122;BME280;40029;58.708;50.190;2023-02-22T09:15:51;98300.88;;;-6.47;36.39
54122;BME280;40029;58.708;50.190;2023-02-22T09:18:22;98263.66;;;-6.62;36.10
54122;BME280;40029;58.708;50.190;2023-02-22T09:20:53;98309.41;;;-6.36;36.18
54122;BME280;40029;58.708;50.190;2023-02-22T09:23:24;98306.91;;;-6.27;36.04
54122;BME280;40029;58.708;50.190;2023-02-22T09:25:57;98297.59;;;-6.31;36.07
54122;BME280;40029;58.708;50.190;2023-02-22T09:28:30;98312.03;;;-6.16;36.18
54122;BME280;40029;58.708;50.190;2023-02-22T09:31:19;98301.94;;;-6.10;35.90
54122;BME280;40029;58.708;50.190;2023-02-22T09:34:09;98300.28;;;-6.02;35.75
54122;BME280;40029;58.708;50.190;2023-02-22T09:36:47;98268.13;;;-6.11;35.68
54122;BME280;40029;58.708;50.190;2023-02-22T09:39:18;98310.50;;;-5.71;35.57
54122;BME280;40029;58.708;50.190;2023-02-22T09:47:35;98308.78;;;-5.79;35.20
54122;BME280;40029;58.708;50.190;2023-02-22T09:50:14;98314.75;;;-5.66;35.37
54122;BME280;40029;58.708;50.190;2023-02-22T09:53:01;98279.16;;;-5.87;34.82
54122;BME280;40029;58.708;50.190;2023-02-22T09:55:38;98261.44;;;-5.93;34.81
54122;BME280;40029;58.708;50.190;2023-02-22T10:01:03;98321.56;;;-5.51;35.31
54122;BME280;40029;58.708;50.190;2023-02-22T10:04:00;98319.88;;;-5.44;35.05
54122;BME280;40029;58.708;50.190;2023-02-22T10:06:34;98269.06;;;-5.66;34.97
54122;BME280;40029;58.708;50.190;2023-02-22T10:09:08;98280.13;;;-5.44;34.81
54122;BME280;40029;58.708;50.190;2023-02-22T10:11:51;98312.31;;;-5.21;34.27
54122;BME280;40029;58.708;50.190;2023-02-22T10:26:25;98311.50;;;-5.08;34.21
54122;BME280;40029;58.708;50.190;2023-02-22T10:29:51;98322.50;;;-4.97;34.76
54122;BME280;40029;58.708;50.190;2023-02-22T10:31:58;98325.03;;;-5.12;33.99
54122;BME280;40029;58.708;50.190;2023-02-22T10:34:38;98327.59;;;-4.97;33.41
54122;BME280;40029;58.708;50.190;2023-02-22T10:37:31;98286.06;;;-5.30;34.10
54122;BME280;40029;58.708;50.190;2023-02-22T10:40:13;98328.41;;;-4.98;34.36
54122;BME280;40029;58.708;50.190;2023-02-22T10:42:50;98327.56;;;-5.03;33.46
54122;BME280;40029;58.708;50.190;2023-02-22T10:45:29;98286.94;;;-5.17;33.44
54122;BME280;40029;58.708;50.190;2023-02-22T10:48:21;98276.75;;;-5.35;34.16
54122;BME280;40029;58.708;50.190;2023-02-22T10:50:58;98295.41;;;-5.22;33.44
54122;BME280;40029;58.708;50.190;2023-02-22T10:53:30;98248.81;;;-5.46;34.16
54122;BME280;40029;58.708;50.190;2023-02-22T11:01:27;98281.84;;;-5.20;34.17
54122;BME280;40029;58.708;50.190;2023-02-22T11:04:22;98291.16;;;-5.25;33.99
54122;BME280;40029;58.708;50.190;2023-02-22T11:09:54;98346.22;;;-4.86;34.03
54122;BME280;40029;58.708;50.190;2023-02-22T11:17:49;98350.44;;;-4.80;33.72
54122;BME280;40029;58.708;50.190;2023-02-22T11:20:27;98303.84;;;-5.11;34.04
54122;BME280;40029;58.708;50.190;2023-02-22T11:22:59;98343.69;;;-4.78;33.88
54122;BME280;40029;58.708;50.190;2023-02-22T11:25:36;98351.28;;;-4.57;33.66
54122;BME280;40029;58.708;50.190;2023-02-22T11:28:20;98333.50;;;-4.64;33.21
54122;BME280;40029;58.708;50.190;2023-02-22T11:31:16;98352.97;;;-4.43;33.14
54122;BME280;40029;58.708;50.190;2023-02-22T11:34:00;98344.50;;;-4.38;32.87
54122;BME280;40029;58.708;50.190;2023-02-22T11:36:39;98310.63;;;-4.57;32.70
54122;BME280;40029;58.708;50.190;2023-02-22T11:39:27;98358.91;;;-4.37;32.81
54122;BME280;40029;58.708;50.190;2023-02-22T11:42:19;98355.50;;;-4.39;32.46
54122;BME280;40029;58.708;50.190;2023-02-22T11:48:17;98354.66;;;-4.24;32.40
54122;BME280;40029;58.708;50.190;2023-02-22T11:56:39;98358.06;;;-4.39;33.22
54122;BME280;40029;58.708;50.190;2023-02-22T12:19:36;98333.44;;;-4.15;32.66
54122;BME280;40029;58.708;50.190;2023-02-22T12:22:31;98369.03;;;-4.12;33.01
54122;BME280;40029;58.708;50.190;2023-02-22T12:25:15;98295.34;;;-4.31;32.51
54122;BME280;40029;58.708;50.190;2023-02-22T12:28:06;98328.34;;;-4.09;32.40
54122;BME280;40029;58.708;50.190;2023-02-22T12:30:44;98363.94;;;-4.02;32.55
54122;BME280;40029;58.708;50.190;2023-02-22T12:33:44;98322.47;;;-4.39;32.97
54122;BME280;40029;58.708;50.190;2023-02-22T12:36:19;98369.88;;;-4.16;32.84
54122;BME280;40029;58.708;50.190;2023-02-22T12:39:03;98363.13;;;-4.23;33.28
54122;BME280;40029;58.708;50.190;2023-02-22T12:41:41;98380.88;;;-3.93;32.45
54122;BME280;40029;58.708;50.190;2023-02-22T12:44:18;98337.66;;;-4.08;32.83
54122;BME280;40029;58.708;50.190;2023-02-22T12:46:54;98379.91;;;-3.61;32.83
54122;BME280;40029;58.708;50.190;2023-02-22T12:50:05;98387.53;;;-3.52;32.27
54122;BME280;40029;58.708;50.190;2023-02-22T12:53:07;98392.63;;;-3.50;32.25
54122;BME280;40029;58.708;50.190;2023-02-22T12:55:47;98393.53;;;-3.70;32.12
54122;BME280;40029;58.708;50.190;2023-02-22T12:58:43;98384.22;;;-3.69;32.64
54122;BME280;40029;58.708;50.190;2023-02-22T13:01:22;98302.09;;;-4.27;32.44
54122;BME280;40029;58.708;50.190;2023-02-22T13:04:13;98403.75;;;-3.82;32.60
54122;BME280;40029;58.708;50.190;2023-02-22T13:12:31;98396.16;;;-4.25;34.09
54122;BME280;40029;58.708;50.190;2023-02-22T13:15:19;98391.97;;;-4.44;33.91
54122;BME280;40029;58.708;50.190;2023-02-22T13:18:03;98397.06;;;-4.63;34.06
54122;BME280;40029;58.708;50.190;2023-02-22T13:20:59;98405.50;;;-4.74;34.48
54122;BME280;40029;58.708;50.190;2023-02-22T13:23:38;98404.66;;;-4.80;34.50
54122;BME280;40029;58.708;50.190;2023-02-22T13:26:20;98316.50;;;-5.40;34.47
54122;BME280;40029;58.708;50.190;2023-02-22T13:29:21;98409.72;;;-4.95;34.66
54122;BME280;40029;58.708;50.190;2023-02-22T13:32:02;98415.63;;;-5.10;34.85
54122;BME280;40029;58.708;50.190;2023-02-22T13:35:15;98413.03;;;-5.17;35.22
54122;BME280;40029;58.708;50.190;2023-02-22T13:49:12;98434.91;;;-5.56;35.67
54122;BME280;40029;58.708;50.190;2023-02-22T13:52:08;98434.84;;;-5.62;35.79
54122;BME280;40029;58.708;50.190;2023-02-22T13:54:48;98439.06;;;-5.67;35.77
54122;BME280;40029;58.708;50.190;2023-02-22T13:57:47;98427.16;;;-5.81;35.67
54122;BME280;40029;58.708;50.190;2023-02-22T14:01:11;98400.84;;;-6.07;36.03
54122;BME280;40029;58.708;50.190;2023-02-22T14:03:37;98443.97;;;-5.99;36.41
54122;BME280;40029;58.708;50.190;2023-02-22T14:06:37;98447.41;;;-5.94;36.40
54122;BME280;40029;58.708;50.190;2023-02-22T14:09:59;98424.34;;;-6.25;36.40
54122;BME280;40029;58.708;50.190;2023-02-22T14:17:45;98426.75;;;-6.42;36.19
54122;BME280;40029;58.708;50.190;2023-02-22T14:20:20;98469.97;;;-6.26;36.65
54122;BME280;40029;58.708;50.190;2023-02-22T14:23:37;98468.28;;;-6.26;36.91
54122;BME280;40029;58.708;50.190;2023-02-22T14:26:21;98474.13;;;-6.36;36.59
54122;BME280;40029;58.708;50.190;2023-02-22T14:28:58;98435.00;;;-6.64;36.61
54122;BME280;40029;58.708;50.190;2023-02-22T14:31:33;98466.44;;;-6.45;36.52
54122;BME280;40029;58.708;50.190;2023-02-22T14:34:13;98463.84;;;-6.50;36.89
54122;BME280;40029;58.708;50.190;2023-02-22T14:36:58;98490.06;;;-6.49;37.17
54122;BME280;40029;58.708;50.190;2023-02-22T14:39:50;98481.53;;;-6.58;37.62
54122;BME280;40029;58.708;50.190;2023-02-22T14:47:57;98439.81;;;-6.93;36.93
54122;BME280;40029;58.708;50.190;2023-02-22T14:56:03;98498.88;;;-6.93;36.94
54122;BME280;40029;58.708;50.190;2023-02-22T15:01:21;98484.19;;;-7.23;36.96
54122;BME280;40029;58.708;50.190;2023-02-22T15:03:53;98496.78;;;-7.27;37.17
54122;BME280;40029;58.708;50.190;2023-02-22T15:06:28;98472.00;;;-7.53;37.11
54122;BME280;40029;58.708;50.190;2023-02-22T15:09:12;98484.66;;;-7.53;37.48
54122;BME280;40029;58.708;50.190;2023-02-22T15:11:44;98521.84;;;-7.46;37.26
54122;BME280;40029;58.708;50.190;2023-02-22T15:14:21;98459.72;;;-7.89;37.25
54122;BME280;40029;58.708;50.190;2023-02-22T15:16:58;98506.34;;;-7.70;37.28
54122;BME280;40029;58.708;50.190;2023-02-22T15:19:33;98516.38;;;-7.75;37.69
54122;BME280;40029;58.708;50.190;2023-02-22T15:22:18;98511.31;;;-7.76;37.73
54122;BME280;40029;58.708;50.190;2023-02-22T15:25:02;98462.66;;;-8.19;37.17
54122;BME280;40029;58.708;50.190;2023-02-22T15:27:34;98518.72;;;-7.87;37.87
54122;BME280;40029;58.708;50.190;2023-02-22T15:32:45;98513.34;;;-8.07;37.33
54122;BME280;40029;58.708;50.190;2023-02-22T15:35:35;98517.56;;;-8.09;37.51
54122;BME280;40029;58.708;50.190;2023-02-22T15:40:41;98532.84;;;-8.00;38.05
54122;BME280;40029;58.708;50.190;2023-02-22T15:43:31;98523.44;;;-8.10;37.21
54122;BME280;40029;58.708;50.190;2023-02-22T15:46:02;98518.38;;;-8.10;37.51
54122;BME280;40029;58.708;50.190;2023-02-22T15:48:36;98508.22;;;-8.13;37.55
54122;BME280;40029;58.708;50.190;2023-02-22T15:51:12;98519.31;;;-8.05;37.98
54122;BME280;40029;58.708;50.190;2023-02-22T15:54:03;98470.06;;;-8.28;37.53
54122;BME280;40029;58.708;50.190;2023-02-22T15:56:50;98537.97;;;-7.97;38.72
54122;BME280;40029;58.708;50.190;2023-02-22T15:59:25;98529.56;;;-7.96;38.27